createdAt,value
2019-01-08T03:23:26.524Z,76.52
2019-01-08T03:25:56.503Z,76.46
2019-01-08T03:28:26.262Z,75.97
2019-01-08T03:30:56.077Z,75.73
2019-01-08T03:33:26.004Z,75.97
2019-01-08T03:35:55.707Z,76.17
2019-01-08T03:38:25.630Z,77.11
2019-01-08T03:40:55.593Z,78.04
2019-01-08T03:43:25.286Z,77.76
2019-01-08T03:45:54.992Z,77.72
2019-01-08T03:48:24.767Z,77.09
2019-01-08T03:50:54.613Z,77.28
2019-01-08T03:53:24.536Z,77.41
2019-01-08T03:55:54.327Z,77.60
2019-01-08T03:58:24.121Z,77.58
2019-01-08T04:00:53.764Z,76.56
2019-01-08T04:03:23.518Z,75.81
2019-01-08T04:05:53.543Z,75.96
2019-01-08T04:08:23.198Z,75.30
2019-01-08T04:10:52.999Z,75.79
2019-01-08T04:13:22.926Z,76.04
2019-01-08T04:15:52.839Z,75.98
2019-01-08T04:18:22.864Z,76.34
2019-01-08T04:20:52.754Z,75.77
2019-01-08T04:23:24.881Z,75.14
2019-01-08T04:25:54.866Z,74.85
2019-01-08T04:28:24.674Z,74.98
2019-01-08T04:30:54.392Z,75.68
2019-01-08T04:33:24.084Z,75.17
2019-01-08T04:35:54.071Z,75.79
2019-01-08T04:38:23.914Z,76.03
2019-01-08T04:40:53.738Z,75.60
2019-01-08T04:43:23.633Z,75.31
2019-01-08T04:45:53.442Z,75.55
2019-01-08T04:48:23.360Z,75.36
2019-01-08T04:50:53.093Z,75.21
2019-01-08T04:53:22.947Z,75.06
2019-01-08T04:55:52.581Z,74.55
2019-01-08T04:58:22.238Z,74.88
2019-01-08T05:00:51.943Z,75.20
2019-01-08T05:03:21.694Z,75.50
2019-01-08T05:05:53.470Z,75.40
2019-01-08T05:08:22.926Z,74.91
2019-01-08T05:10:53.914Z,74.44
2019-01-08T05:13:23.808Z,74.41
2019-01-08T05:15:53.618Z,74.23
2019-01-08T05:18:23.513Z,74.64
2019-01-08T05:20:53.232Z,74.80
2019-01-08T05:23:22.871Z,74.48
2019-01-08T05:25:52.753Z,74.31
2019-01-08T05:28:22.756Z,74.57
2019-01-08T05:30:52.626Z,75.24
2019-01-08T05:33:22.489Z,75.02
2019-01-08T05:35:52.341Z,75.18
2019-01-08T05:38:22.030Z,75.26
2019-01-08T05:40:51.853Z,75.69
2019-01-08T05:43:22.846Z,75.64
2019-01-08T05:45:52.393Z,75.38
2019-01-08T05:48:22.108Z,75.01
2019-01-08T05:50:52.091Z,75.03
2019-01-08T05:53:21.731Z,76.24
2019-01-08T05:55:51.645Z,76.87
2019-01-08T05:58:21.437Z,77.28
2019-01-08T06:00:51.242Z,77.75
2019-01-08T06:03:20.986Z,77.93
2019-01-08T06:05:50.983Z,77.84
2019-01-08T06:08:20.961Z,77.60
2019-01-08T06:10:50.730Z,77.54
2019-01-08T06:13:20.535Z,77.18
2019-01-08T06:15:50.667Z,76.70
2019-01-08T06:18:20.291Z,76.41
2019-01-08T06:20:50.214Z,76.25
2019-01-08T06:23:22.403Z,75.72
2019-01-08T06:25:52.262Z,75.51
2019-01-08T06:28:21.859Z,75.29
2019-01-08T06:30:51.504Z,75.41
2019-01-08T06:33:21.226Z,75.46
2019-01-08T06:35:50.879Z,75.56
2019-01-08T06:38:20.852Z,75.26
2019-01-08T06:40:57.530Z,75.48
2019-01-08T06:43:22.558Z,75.84
2019-01-08T06:45:52.358Z,75.49
2019-01-08T06:48:22.136Z,75.01
2019-01-08T06:50:56.301Z,74.62
2019-01-08T06:53:23.559Z,73.32
2019-01-08T06:55:53.753Z,73.59
2019-01-08T06:58:23.433Z,74.21
2019-01-08T07:00:53.178Z,75.06
2019-01-08T07:03:22.875Z,74.13
2019-01-08T07:05:52.800Z,74.34
2019-01-08T07:08:22.634Z,74.23
2019-01-08T07:10:52.466Z,74.92
2019-01-08T07:13:22.187Z,74.13
2019-01-08T07:15:51.858Z,74.11
2019-01-08T07:18:21.541Z,73.61
2019-01-08T07:20:51.351Z,73.69
2019-01-08T07:23:22.376Z,72.81
2019-01-08T07:25:52.133Z,72.42
2019-01-08T07:28:23.321Z,72.37
2019-01-08T07:30:53.087Z,72.69
2019-01-08T07:33:23.117Z,72.14
2019-01-08T07:35:52.783Z,72.21
2019-01-08T07:38:22.430Z,72.25
2019-01-08T07:40:52.123Z,71.52
2019-01-08T07:43:21.902Z,71.81
2019-01-08T07:45:51.664Z,72.02
2019-01-08T07:48:21.562Z,72.76
2019-01-08T07:50:52.502Z,72.09
2019-01-08T07:53:22.144Z,72.10
2019-01-08T07:55:51.853Z,71.92
2019-01-08T07:58:21.793Z,72.74
2019-01-08T08:00:51.703Z,72.67
2019-01-08T08:03:21.682Z,71.39
2019-01-08T08:05:51.713Z,72.08
2019-01-08T08:08:22.537Z,72.41
2019-01-08T08:10:52.164Z,70.91
2019-01-08T08:13:22.026Z,71.10
2019-01-08T08:15:52.079Z,70.86
2019-01-08T08:18:21.913Z,71.49
2019-01-08T08:20:52.988Z,70.12
2019-01-08T08:23:22.866Z,70.67
2019-01-08T08:25:52.690Z,70.37
2019-01-08T08:28:22.487Z,69.71
2019-01-08T08:30:58.612Z,69.63
2019-01-08T08:33:24.065Z,70.05
2019-01-08T08:35:53.827Z,70.16
2019-01-08T08:38:23.811Z,69.17
2019-01-08T08:40:53.531Z,68.97
2019-01-08T08:43:24.481Z,69.09
2019-01-08T08:45:54.091Z,67.51
2019-01-08T08:48:23.767Z,66.42
2019-01-08T08:50:54.124Z,66.70
2019-01-08T08:53:23.935Z,65.23
2019-01-08T08:55:53.673Z,65.21
2019-01-08T08:58:23.226Z,64.59
2019-01-08T09:00:52.975Z,63.97
2019-01-08T09:03:22.909Z,64.13
2019-01-08T09:05:52.718Z,63.38
2019-01-08T09:08:22.395Z,62.41
2019-01-08T09:10:53.480Z,62.81
2019-01-08T09:13:23.259Z,62.12
2019-01-08T09:15:53.074Z,62.58
2019-01-08T09:18:23.155Z,62.27
2019-01-08T09:20:52.908Z,61.48
2019-01-08T09:23:22.694Z,61.04
2019-01-08T09:25:53.882Z,60.49
2019-01-08T09:28:23.708Z,60.42
2019-01-08T09:30:53.563Z,60.96
2019-01-08T09:33:23.451Z,61.41
2019-01-08T09:35:53.117Z,60.91
2019-01-08T09:38:22.940Z,60.45
2019-01-08T09:40:53.978Z,60.54
2019-01-08T09:43:23.935Z,60.10
2019-01-08T09:45:53.724Z,60.12
2019-01-08T09:48:23.678Z,60.03
2019-01-08T09:50:53.444Z,58.89
2019-01-08T09:53:23.025Z,59.19
2019-01-08T09:55:53.233Z,60.13
2019-01-08T09:58:23.017Z,60.53
2019-01-08T10:00:52.624Z,59.33
2019-01-08T10:03:22.463Z,60.41
2019-01-08T10:05:52.145Z,58.36
2019-01-08T10:08:21.897Z,57.50
2019-01-08T10:10:51.754Z,58.30
2019-01-08T10:13:21.665Z,58.31
2019-01-08T10:15:51.685Z,56.64
2019-01-08T10:18:21.586Z,56.76
2019-01-08T10:20:51.667Z,55.67
2019-01-08T10:23:23.865Z,56.65
2019-01-08T10:25:54.108Z,56.27
2019-01-08T10:28:23.777Z,55.72
2019-01-08T10:30:53.791Z,54.93
2019-01-08T10:33:23.527Z,55.97
2019-01-08T10:35:53.358Z,56.08
2019-01-08T10:38:23.425Z,56.32
2019-01-08T10:40:53.134Z,54.70
2019-01-08T10:43:23.136Z,54.81
2019-01-08T10:45:53.052Z,54.16
2019-01-08T10:48:22.949Z,54.00
2019-01-08T10:50:52.659Z,53.86
2019-01-08T10:53:23.879Z,53.80
2019-01-08T10:55:53.852Z,53.37
2019-01-08T10:58:23.634Z,53.67
2019-01-08T11:00:54.715Z,52.22
2019-01-08T11:03:24.600Z,52.78
2019-01-08T11:05:54.306Z,53.49
2019-01-08T11:08:24.487Z,52.78
2019-01-08T11:10:54.430Z,53.50
2019-01-08T11:13:25.196Z,54.20
2019-01-08T11:15:54.856Z,54.13
2019-01-08T11:18:24.610Z,54.98
2019-01-08T11:20:54.513Z,54.92
2019-01-08T11:23:24.385Z,55.16
2019-01-08T11:25:54.148Z,54.11
2019-01-08T11:28:23.859Z,53.57
2019-01-08T11:30:53.892Z,53.25
2019-01-08T11:33:23.806Z,53.41
2019-01-08T11:35:53.413Z,53.61
2019-01-08T11:38:24.385Z,54.71
2019-01-08T11:40:54.544Z,55.54
2019-01-08T11:43:24.152Z,55.83
2019-01-08T11:45:54.133Z,55.31
2019-01-08T11:48:24.007Z,55.66
2019-01-08T11:50:53.815Z,54.99
2019-01-08T11:53:23.564Z,54.83
2019-01-08T11:55:53.353Z,55.00
2019-01-08T11:58:23.573Z,55.05
2019-01-08T12:00:54.519Z,54.44
2019-01-08T12:03:24.232Z,55.27
2019-01-08T12:05:54.499Z,54.77
2019-01-08T12:08:25.605Z,54.75
2019-01-08T12:10:55.471Z,54.79
2019-01-08T12:13:25.922Z,54.59
2019-01-08T12:15:58.257Z,55.31
2019-01-08T12:18:28.149Z,54.56
2019-01-08T12:20:57.922Z,55.05
2019-01-08T12:23:28.901Z,54.56
2019-01-08T12:25:58.499Z,54.94
2019-01-08T12:28:29.530Z,55.28
2019-01-08T12:30:59.361Z,55.52
2019-01-08T12:33:29.080Z,55.64
2019-01-08T12:36:00.336Z,55.22
2019-01-08T12:38:30.031Z,54.74
2019-01-08T12:40:59.942Z,53.44
2019-01-08T12:43:29.835Z,54.11
2019-01-08T12:45:59.353Z,54.64
2019-01-08T12:48:29.202Z,54.80
2019-01-08T12:50:58.989Z,55.09
2019-01-08T12:53:28.594Z,54.54
2019-01-08T12:55:58.303Z,55.20
2019-01-08T12:58:28.148Z,55.79
2019-01-08T13:00:57.952Z,55.96
2019-01-08T13:03:27.857Z,56.40
2019-01-08T13:05:58.955Z,56.14
2019-01-08T13:08:28.699Z,56.07
2019-01-08T13:10:58.639Z,55.87
2019-01-08T13:13:28.589Z,56.23
2019-01-08T13:15:58.366Z,56.25
2019-01-08T13:18:28.380Z,56.54
2019-01-08T13:20:58.260Z,56.05
2019-01-08T13:23:27.930Z,56.35
2019-01-08T13:25:57.938Z,56.19
2019-01-08T13:28:27.909Z,56.86
2019-01-08T13:30:57.559Z,57.62
2019-01-08T13:33:27.272Z,57.79
2019-01-08T13:35:58.229Z,58.25
2019-01-08T13:38:27.980Z,58.11
2019-01-08T13:40:57.683Z,58.33
2019-01-08T13:43:27.517Z,58.14
2019-01-08T13:45:57.479Z,58.14
2019-01-08T13:48:27.210Z,58.44
2019-01-08T13:50:57.066Z,57.94
2019-01-08T13:53:26.883Z,57.99
2019-01-08T13:55:56.602Z,57.59
2019-01-08T13:58:26.545Z,57.81
2019-01-08T14:00:56.439Z,58.08
2019-01-08T14:03:26.387Z,58.23
2019-01-08T14:05:56.221Z,57.97
2019-01-08T14:08:25.880Z,58.09
2019-01-08T14:10:56.542Z,58.68
2019-01-08T14:13:26.727Z,58.41
2019-01-08T14:15:56.546Z,59.06
2019-01-08T14:18:26.690Z,59.64
2019-01-08T14:20:56.559Z,60.18
2019-01-08T14:23:26.432Z,60.31
2019-01-08T14:25:57.012Z,60.91
2019-01-08T14:28:26.649Z,60.36
2019-01-08T14:30:56.478Z,58.98
2019-01-08T14:33:26.268Z,58.34
2019-01-08T14:35:56.244Z,57.95
2019-01-08T14:38:26.218Z,58.43
2019-01-08T14:40:56.046Z,59.00
2019-01-08T14:43:25.815Z,59.94
2019-01-08T14:45:55.809Z,60.00
2019-01-08T14:48:25.598Z,60.11
2019-01-08T14:50:55.455Z,60.81
2019-01-08T14:53:26.137Z,61.45
2019-01-08T14:55:55.948Z,62.54
2019-01-08T14:58:25.882Z,63.11
2019-01-08T15:00:55.678Z,63.48
2019-01-08T15:03:25.482Z,63.19
2019-01-08T15:05:55.322Z,63.55
2019-01-08T15:08:25.172Z,64.23
2019-01-08T15:10:54.835Z,63.94
2019-01-08T15:13:24.894Z,64.83
2019-01-08T15:15:54.756Z,64.84
2019-01-08T15:18:24.610Z,64.69
2019-01-08T15:20:54.321Z,65.01
2019-01-08T15:23:23.971Z,65.78
2019-01-08T15:25:56.186Z,65.97
2019-01-08T15:28:25.944Z,65.91
2019-01-08T15:30:55.799Z,66.17
2019-01-08T15:33:25.726Z,66.13
2019-01-08T15:35:55.745Z,66.22
2019-01-08T15:38:25.469Z,66.24
2019-01-08T15:40:56.689Z,66.04
2019-01-08T15:43:26.345Z,65.65
2019-01-08T15:45:55.944Z,66.21
2019-01-08T15:48:25.901Z,66.23
2019-01-08T15:50:55.871Z,66.71
2019-01-08T15:53:25.810Z,66.36
2019-01-08T15:55:55.553Z,65.72
2019-01-08T15:58:25.494Z,65.14
2019-01-08T16:00:55.534Z,64.70
2019-01-08T16:03:26.634Z,64.63
2019-01-08T16:05:56.487Z,65.01
2019-01-08T16:08:26.448Z,64.96
2019-01-08T16:10:56.384Z,64.97
2019-01-08T16:13:26.130Z,65.15
2019-01-08T16:15:57.186Z,65.05
2019-01-08T16:18:27.008Z,64.80
2019-01-08T16:20:56.755Z,64.57
2019-01-08T16:23:26.501Z,64.73
2019-01-08T16:25:56.741Z,65.28
2019-01-08T16:28:26.648Z,65.24
2019-01-08T16:30:56.505Z,65.75
2019-01-08T16:33:26.292Z,65.49
2019-01-08T16:35:56.090Z,65.59
2019-01-08T16:38:26.010Z,65.22
2019-01-08T16:40:56.037Z,64.83
2019-01-08T16:43:26.752Z,65.08
2019-01-08T16:45:58.386Z,65.95
2019-01-08T16:48:28.233Z,66.06
2019-01-08T16:50:58.109Z,66.60
2019-01-08T16:53:27.937Z,66.95
2019-01-08T16:55:57.799Z,66.87
2019-01-08T16:58:27.859Z,66.96
2019-01-08T17:00:57.402Z,67.01
2019-01-08T17:03:27.242Z,66.78
2019-01-08T17:05:57.194Z,66.57
2019-01-08T17:08:26.857Z,66.46
2019-01-08T17:10:56.688Z,66.22
2019-01-08T17:13:27.720Z,65.64
2019-01-08T17:15:57.532Z,65.82
2019-01-08T17:18:27.353Z,66.32
2019-01-08T17:20:57.356Z,66.11
2019-01-08T17:23:27.043Z,65.85
2019-01-08T17:25:56.862Z,66.02
2019-01-08T17:28:26.710Z,65.54
2019-01-08T17:30:56.539Z,66.36
2019-01-08T17:33:33.808Z,66.53
2019-01-08T17:35:57.998Z,67.18
2019-01-08T17:38:29.097Z,67.47
2019-01-08T17:40:58.757Z,68.08
2019-01-08T17:43:33.406Z,68.78
2019-01-08T17:46:00.737Z,68.84
2019-01-08T17:48:30.653Z,67.41
2019-01-08T17:51:02.912Z,67.33
2019-01-08T17:53:32.694Z,67.75
2019-01-08T17:56:02.743Z,68.04
2019-01-08T17:58:40.887Z,69.56
2019-01-08T18:01:20.072Z,70.74
2019-01-08T18:03:50.332Z,71.30
2019-01-08T18:06:20.219Z,73.28
2019-01-08T18:08:50.412Z,74.53
2019-01-08T18:11:20.152Z,75.72
2019-01-08T18:13:50.553Z,76.14
2019-01-08T18:16:21.639Z,76.22
2019-01-08T18:18:51.573Z,76.24
2019-01-08T18:21:21.730Z,76.27
2019-01-08T18:23:51.716Z,76.81
2019-01-08T18:26:21.827Z,76.92
2019-01-08T18:28:52.969Z,76.90
2019-01-08T18:31:22.991Z,76.89
2019-01-08T18:33:53.032Z,76.95
2019-01-08T18:36:23.223Z,76.71
2019-01-08T18:38:53.070Z,76.72
2019-01-08T18:41:22.883Z,76.23
2019-01-08T18:43:52.714Z,75.92
2019-01-08T18:46:22.570Z,75.93
2019-01-08T18:48:52.629Z,75.98
2019-01-08T18:51:22.651Z,76.03
2019-01-08T18:53:52.663Z,75.91
2019-01-08T18:56:22.733Z,75.87
2019-01-08T18:58:52.665Z,75.92
2019-01-08T19:01:22.689Z,76.28
2019-01-08T19:03:59.781Z,76.18
2019-01-08T19:06:24.539Z,76.44
2019-01-08T19:09:32.991Z,76.93
2019-01-08T19:12:02.832Z,77.21
2019-01-08T19:14:38.037Z,77.43
2019-01-08T19:17:08.034Z,78.10
2019-01-08T19:19:37.923Z,78.31
2019-01-08T19:22:08.096Z,78.40
2019-01-08T19:24:38.039Z,78.63
2019-01-08T19:27:07.997Z,78.47
2019-01-08T19:29:39.134Z,78.33
2019-01-08T19:32:09.170Z,78.04
2019-01-08T19:34:38.971Z,77.79
2019-01-08T19:37:08.679Z,77.73
2019-01-08T19:39:38.725Z,77.48
2019-01-08T19:42:08.888Z,77.35
2019-01-08T19:44:38.933Z,77.38
2019-01-08T19:47:09.961Z,77.19
2019-01-08T19:49:39.831Z,77.51
2019-01-08T19:52:09.782Z,77.81
2019-01-08T19:54:39.729Z,78.11
2019-01-08T19:57:09.563Z,78.39
2019-01-08T19:59:39.354Z,78.17
2019-01-08T20:02:09.058Z,78.54
2019-01-08T20:04:39.030Z,78.66
2019-01-08T20:07:09.002Z,78.74
2019-01-08T20:09:38.791Z,78.67
2019-01-08T20:12:08.642Z,78.62
2019-01-08T20:14:38.426Z,78.61
2019-01-08T20:17:08.241Z,78.77
2019-01-08T20:19:38.184Z,78.66
2019-01-08T20:22:07.940Z,78.36
2019-01-08T20:28:35.997Z,78.33
2019-01-08T20:31:54.050Z,78.48
2019-01-08T20:34:53.578Z,78.57
2019-01-08T20:38:05.181Z,78.37
2019-01-08T20:45:10.721Z,78.62
2019-01-08T20:48:30.019Z,79.08
2019-01-08T20:51:56.092Z,79.39
2019-01-08T20:58:41.971Z,79.95
2019-01-08T21:02:04.383Z,80.02
2019-01-08T21:08:44.131Z,79.91
2019-01-08T21:12:02.243Z,79.75
2019-01-08T21:15:09.465Z,79.67
2019-01-08T21:18:28.108Z,79.27
2019-01-08T21:21:26.906Z,79.21
2019-01-08T21:24:28.392Z,79.18
2019-01-08T21:27:47.115Z,79.20
2019-01-08T21:31:09.972Z,79.30
2019-01-08T21:34:13.753Z,79.03
2019-01-08T21:37:21.948Z,79.24
2019-01-08T21:40:17.584Z,79.34
2019-01-08T21:43:35.190Z,79.35
2019-01-08T21:48:04.814Z,79.34
2019-01-08T21:53:44.714Z,79.22
2019-01-08T22:14:03.866Z,78.13
2019-01-08T22:17:08.849Z,77.92
2019-01-08T22:20:51.609Z,77.77
2019-01-08T22:24:25.992Z,77.76
2019-01-08T22:27:11.525Z,77.82
2019-01-08T22:30:13.389Z,77.58
2019-01-08T22:33:24.470Z,77.59
2019-01-08T22:36:48.913Z,77.75
2019-01-08T22:40:10.282Z,77.97
2019-01-08T22:43:45.772Z,77.80
2019-01-08T22:47:17.602Z,77.67
2019-01-08T22:50:21.149Z,77.85
2019-01-08T22:53:57.121Z,77.90
2019-01-08T23:00:39.796Z,77.98
2019-01-08T23:04:11.271Z,77.90
2019-01-08T23:11:24.193Z,78.05
2019-01-08T23:14:13.986Z,78.06
2019-01-08T23:21:05.630Z,78.34
2019-01-08T23:23:58.017Z,78.41
2019-01-08T23:27:02.779Z,78.47
2019-01-08T23:30:13.039Z,78.60
2019-01-08T23:33:08.687Z,78.35
2019-01-08T23:36:25.265Z,78.21
2019-01-08T23:39:29.792Z,78.19
2019-01-08T23:43:07.949Z,78.28
2019-01-08T23:46:29.823Z,78.20
2019-01-08T23:50:10.853Z,78.34
2019-01-08T23:57:14.250Z,78.23
